sensor_id;sensor_type;location;lat;lon;timestamp;temperature;humidity
73438;DHT22;62744;56.802;23.964;2022-09-27T00:01:08;9.40;89.70
73438;DHT22;62744;56.802;23.964;2022-09-27T00:03:36;9.30;89.60
73438;DHT22;62744;56.802;23.964;2022-09-27T00:06:15;9.50;89.80
73438;DHT22;62744;56.802;23.964;2022-09-27T00:08:43;9.30;89.90
73438;DHT22;62744;56.802;23.964;2022-09-27T00:11:29;9.30;89.90
73438;DHT22;62744;56.802;23.964;2022-09-27T00:13:58;9.30;89.90
73438;DHT22;62744;56.802;23.964;2022-09-27T00:16:29;9.20;90.00
73438;DHT22;62744;56.802;23.964;2022-09-27T00:19:02;9.20;90.30
73438;DHT22;62744;56.802;23.964;2022-09-27T00:21:30;9.20;90.40
73438;DHT22;62744;56.802;23.964;2022-09-27T00:23:58;9.20;90.10
73438;DHT22;62744;56.802;23.964;2022-09-27T00:26:26;9.10;90.40
73438;DHT22;62744;56.802;23.964;2022-09-27T00:28:53;9.10;90.20
73438;DHT22;62744;56.802;23.964;2022-09-27T00:31:26;9.10;90.40
73438;DHT22;62744;56.802;23.964;2022-09-27T00:33:57;9.00;90.50
73438;DHT22;62744;56.802;23.964;2022-09-27T00:36:27;9.00;90.50
73438;DHT22;62744;56.802;23.964;2022-09-27T00:38:55;9.00;90.60
73438;DHT22;62744;56.802;23.964;2022-09-27T00:41:26;9.00;90.80
73438;DHT22;62744;56.802;23.964;2022-09-27T00:43:55;8.90;90.90
73438;DHT22;62744;56.802;23.964;2022-09-27T00:49:09;8.90;90.90
73438;DHT22;62744;56.802;23.964;2022-09-27T00:51:41;8.90;90.90
73438;DHT22;62744;56.802;23.964;2022-09-27T00:54:11;8.80;90.90
73438;DHT22;62744;56.802;23.964;2022-09-27T00:56:39;9.00;91.00
73438;DHT22;62744;56.802;23.964;2022-09-27T00:59:16;8.90;91.00
73438;DHT22;62744;56.802;23.964;2022-09-27T01:01:45;8.80;90.90
73438;DHT22;62744;56.802;23.964;2022-09-27T01:04:16;8.80;90.90
73438;DHT22;62744;56.802;23.964;2022-09-27T01:06:44;8.80;91.20
73438;DHT22;62744;56.802;23.964;2022-09-27T01:09:11;8.80;91.00
73438;DHT22;62744;56.802;23.964;2022-09-27T01:11:53;8.80;90.90
73438;DHT22;62744;56.802;23.964;2022-09-27T01:17:00;8.80;91.20
73438;DHT22;62744;56.802;23.964;2022-09-27T01:22:41;8.80;91.30
73438;DHT22;62744;56.802;23.964;2022-09-27T01:25:27;8.80;91.30
73438;DHT22;62744;56.802;23.964;2022-09-27T01:29:06;8.80;91.40
73438;DHT22;62744;56.802;23.964;2022-09-27T01:31:29;8.90;91.20
73438;DHT22;62744;56.802;23.964;2022-09-27T01:34:46;8.80;91.20
73438;DHT22;62744;56.802;23.964;2022-09-27T01:37:00;8.80;91.20
73438;DHT22;62744;56.802;23.964;2022-09-27T01:42:21;8.70;91.40
73438;DHT22;62744;56.802;23.964;2022-09-27T01:44:58;8.80;91.20
73438;DHT22;62744;56.802;23.964;2022-09-27T01:47:46;8.80;91.20
73438;DHT22;62744;56.802;23.964;2022-09-27T01:53:06;8.70;91.30
73438;DHT22;62744;56.802;23.964;2022-09-27T01:55:37;8.70;91.90
73438;DHT22;62744;56.802;23.964;2022-09-27T01:58:33;8.60;91.80
73438;DHT22;62744;56.802;23.964;2022-09-27T02:01:03;8.60;91.60
73438;DHT22;62744;56.802;23.964;2022-09-27T02:03:39;8.60;91.80
73438;DHT22;62744;56.802;23.964;2022-09-27T02:06:14;8.60;91.70
73438;DHT22;62744;56.802;23.964;2022-09-27T02:08:44;8.60;91.60
73438;DHT22;62744;56.802;23.964;2022-09-27T02:11:14;8.50;91.90
73438;DHT22;62744;56.802;23.964;2022-09-27T02:19:16;8.60;91.70
73438;DHT22;62744;56.802;23.964;2022-09-27T02:24:36;8.60;91.60
73438;DHT22;62744;56.802;23.964;2022-09-27T02:27:12;8.50;91.90
73438;DHT22;62744;56.802;23.964;2022-09-27T02:29:52;8.40;92.00
73438;DHT22;62744;56.802;23.964;2022-09-27T02:32:21;8.40;92.10
73438;DHT22;62744;56.802;23.964;2022-09-27T02:34:50;8.50;91.90
73438;DHT22;62744;56.802;23.964;2022-09-27T02:37:18;8.50;91.90
73438;DHT22;62744;56.802;23.964;2022-09-27T02:39:45;8.40;91.90
73438;DHT22;62744;56.802;23.964;2022-09-27T02:42:14;8.40;91.80
73438;DHT22;62744;56.802;23.964;2022-09-27T02:44:41;8.50;91.80
73438;DHT22;62744;56.802;23.964;2022-09-27T02:48:18;8.40;91.70
73438;DHT22;62744;56.802;23.964;2022-09-27T02:50:33;8.50;91.50
73438;DHT22;62744;56.802;23.964;2022-09-27T02:53:12;8.50;91.70
73438;DHT22;62744;56.802;23.964;2022-09-27T03:04:26;8.40;92.00
73438;DHT22;62744;56.802;23.964;2022-09-27T03:06:56;8.30;91.70
73438;DHT22;62744;56.802;23.964;2022-09-27T03:09:42;8.30;91.80
73438;DHT22;62744;56.802;23.964;2022-09-27T03:12:11;8.30;92.00
73438;DHT22;62744;56.802;23.964;2022-09-27T03:14:38;8.30;91.60
73438;DHT22;62744;56.802;23.964;2022-09-27T03:17:06;8.20;92.10
73438;DHT22;62744;56.802;23.964;2022-09-27T03:19:33;8.10;92.20
73438;DHT22;62744;56.802;23.964;2022-09-27T03:22:01;8.20;92.10
73438;DHT22;62744;56.802;23.964;2022-09-27T03:24:28;8.10;92.20
73438;DHT22;62744;56.802;23.964;2022-09-27T03:26:56;8.10;92.40
73438;DHT22;62744;56.802;23.964;2022-09-27T03:29:23;8.00;92.40
73438;DHT22;62744;56.802;23.964;2022-09-27T03:31:51;8.00;92.10
73438;DHT22;62744;56.802;23.964;2022-09-27T03:34:18;7.90;92.60
73438;DHT22;62744;56.802;23.964;2022-09-27T03:36:45;7.90;92.70
73438;DHT22;62744;56.802;23.964;2022-09-27T03:39:13;7.90;92.70
73438;DHT22;62744;56.802;23.964;2022-09-27T03:41:40;7.90;92.70
73438;DHT22;62744;56.802;23.964;2022-09-27T03:44:08;7.80;92.80
73438;DHT22;62744;56.802;23.964;2022-09-27T03:46:35;7.70;93.10
73438;DHT22;62744;56.802;23.964;2022-09-27T03:49:03;7.60;93.30
73438;DHT22;62744;56.802;23.964;2022-09-27T03:51:30;7.70;93.30
73438;DHT22;62744;56.802;23.964;2022-09-27T03:53:58;7.60;93.30
73438;DHT22;62744;56.802;23.964;2022-09-27T03:56:26;7.60;93.80
73438;DHT22;62744;56.802;23.964;2022-09-27T03:58:53;7.60;93.40
73438;DHT22;62744;56.802;23.964;2022-09-27T04:01:20;7.50;93.50
73438;DHT22;62744;56.802;23.964;2022-09-27T04:03:48;7.50;93.30
73438;DHT22;62744;56.802;23.964;2022-09-27T04:06:16;7.50;93.40
73438;DHT22;62744;56.802;23.964;2022-09-27T04:08:45;7.40;93.70
73438;DHT22;62744;56.802;23.964;2022-09-27T04:11:13;7.50;93.90
73438;DHT22;62744;56.802;23.964;2022-09-27T04:13:41;7.40;93.80
73438;DHT22;62744;56.802;23.964;2022-09-27T04:16:10;7.40;93.60
73438;DHT22;62744;56.802;23.964;2022-09-27T04:18:38;7.40;93.30
73438;DHT22;62744;56.802;23.964;2022-09-27T04:21:05;7.30;92.60
73438;DHT22;62744;56.802;23.964;2022-09-27T04:23:33;7.20;92.70
73438;DHT22;62744;56.802;23.964;2022-09-27T04:26:01;7.10;92.70
73438;DHT22;62744;56.802;23.964;2022-09-27T04:28:28;7.10;92.90
73438;DHT22;62744;56.802;23.964;2022-09-27T04:30:56;7.20;93.20
73438;DHT22;62744;56.802;23.964;2022-09-27T04:33:23;7.10;93.70
73438;DHT22;62744;56.802;23.964;2022-09-27T04:35:51;7.20;93.90
73438;DHT22;62744;56.802;23.964;2022-09-27T04:38:37;7.20;93.70
73438;DHT22;62744;56.802;23.964;2022-09-27T04:41:05;7.30;93.90
73438;DHT22;62744;56.802;23.964;2022-09-27T04:43:33;7.30;94.10
73438;DHT22;62744;56.802;23.964;2022-09-27T04:46:03;7.10;93.80
73438;DHT22;62744;56.802;23.964;2022-09-27T04:48:31;7.20;94.10
73438;DHT22;62744;56.802;23.964;2022-09-27T04:51:00;7.30;93.60
73438;DHT22;62744;56.802;23.964;2022-09-27T04:53:28;7.50;94.00
73438;DHT22;62744;56.802;23.964;2022-09-27T04:55:56;7.70;93.60
73438;DHT22;62744;56.802;23.964;2022-09-27T04:58:24;8.10;92.70
73438;DHT22;62744;56.802;23.964;2022-09-27T05:00:51;8.40;91.60
73438;DHT22;62744;56.802;23.964;2022-09-27T05:03:19;8.60;90.60
73438;DHT22;62744;56.802;23.964;2022-09-27T05:05:47;8.90;89.70
73438;DHT22;62744;56.802;23.964;2022-09-27T05:08:14;9.40;89.00
73438;DHT22;62744;56.802;23.964;2022-09-27T05:10:42;9.40;87.40
73438;DHT22;62744;56.802;23.964;2022-09-27T05:13:09;9.50;87.00
73438;DHT22;62744;56.802;23.964;2022-09-27T05:15:36;9.60;86.90
73438;DHT22;62744;56.802;23.964;2022-09-27T05:18:05;9.70;86.80
73438;DHT22;62744;56.802;23.964;2022-09-27T05:20:37;9.80;86.40
73438;DHT22;62744;56.802;23.964;2022-09-27T05:23:05;9.90;86.10
73438;DHT22;62744;56.802;23.964;2022-09-27T05:25:33;9.90;86.20
73438;DHT22;62744;56.802;23.964;2022-09-27T05:28:01;9.90;85.90
73438;DHT22;62744;56.802;23.964;2022-09-27T05:30:28;10.10;85.90
73438;DHT22;62744;56.802;23.964;2022-09-27T05:32:55;10.10;85.50
73438;DHT22;62744;56.802;23.964;2022-09-27T05:35:23;10.10;85.60
73438;DHT22;62744;56.802;23.964;2022-09-27T05:37:55;10.10;85.30
73438;DHT22;62744;56.802;23.964;2022-09-27T05:40:23;10.10;85.40
73438;DHT22;62744;56.802;23.964;2022-09-27T05:43:08;10.20;85.50
73438;DHT22;62744;56.802;23.964;2022-09-27T05:45:36;10.30;85.70
73438;DHT22;62744;56.802;23.964;2022-09-27T05:48:04;10.40;85.30
73438;DHT22;62744;56.802;23.964;2022-09-27T05:50:31;10.40;85.50
73438;DHT22;62744;56.802;23.964;2022-09-27T05:52:59;10.50;85.30
73438;DHT22;62744;56.802;23.964;2022-09-27T05:55:26;10.70;85.10
73438;DHT22;62744;56.802;23.964;2022-09-27T05:58:02;11.00;84.20
73438;DHT22;62744;56.802;23.964;2022-09-27T06:00:30;11.10;84.30
73438;DHT22;62744;56.802;23.964;2022-09-27T06:03:01;11.30;83.30
73438;DHT22;62744;56.802;23.964;2022-09-27T06:05:33;11.20;83.40
73438;DHT22;62744;56.802;23.964;2022-09-27T06:08:07;11.10;83.70
73438;DHT22;62744;56.802;23.964;2022-09-27T06:10:35;11.20;84.10
73438;DHT22;62744;56.802;23.964;2022-09-27T06:13:14;11.30;84.20
73438;DHT22;62744;56.802;23.964;2022-09-27T06:15:43;11.20;83.80
73438;DHT22;62744;56.802;23.964;2022-09-27T06:18:14;11.20;84.10
73438;DHT22;62744;56.802;23.964;2022-09-27T06:20:45;11.30;84.20
73438;DHT22;62744;56.802;23.964;2022-09-27T06:23:15;11.20;84.30
73438;DHT22;62744;56.802;23.964;2022-09-27T06:25:45;11.40;84.70
73438;DHT22;62744;56.802;23.964;2022-09-27T06:28:13;11.40;84.20
73438;DHT22;62744;56.802;23.964;2022-09-27T06:30:43;11.50;84.60
73438;DHT22;62744;56.802;23.964;2022-09-27T06:33:13;11.80;83.70
73438;DHT22;62744;56.802;23.964;2022-09-27T06:35:41;11.80;84.00
73438;DHT22;62744;56.802;23.964;2022-09-27T06:38:11;12.00;83.90
73438;DHT22;62744;56.802;23.964;2022-09-27T06:40:38;11.90;83.90
73438;DHT22;62744;56.802;23.964;2022-09-27T06:43:07;12.10;84.80
73438;DHT22;62744;56.802;23.964;2022-09-27T06:45:36;12.40;83.80
73438;DHT22;62744;56.802;23.964;2022-09-27T06:48:04;12.40;83.30
73438;DHT22;62744;56.802;23.964;2022-09-27T06:50:36;12.40;83.90
73438;DHT22;62744;56.802;23.964;2022-09-27T06:53:04;12.70;82.10
73438;DHT22;62744;56.802;23.964;2022-09-27T06:55:32;12.70;81.90
73438;DHT22;62744;56.802;23.964;2022-09-27T06:58:00;13.00;82.00
73438;DHT22;62744;56.802;23.964;2022-09-27T07:00:51;13.10;81.20
73438;DHT22;62744;56.802;23.964;2022-09-27T07:03:21;13.00;81.60
73438;DHT22;62744;56.802;23.964;2022-09-27T07:06:05;13.20;82.20
73438;DHT22;62744;56.802;23.964;2022-09-27T07:08:32;13.30;82.00
73438;DHT22;62744;56.802;23.964;2022-09-27T07:11:04;13.20;81.10
73438;DHT22;62744;56.802;23.964;2022-09-27T07:13:32;13.30;81.80
73438;DHT22;62744;56.802;23.964;2022-09-27T07:16:00;13.40;81.70
73438;DHT22;62744;56.802;23.964;2022-09-27T07:18:28;13.50;81.70
73438;DHT22;62744;56.802;23.964;2022-09-27T07:20:58;13.60;81.40
73438;DHT22;62744;56.802;23.964;2022-09-27T07:23:27;13.70;81.60
73438;DHT22;62744;56.802;23.964;2022-09-27T07:25:55;13.70;81.80
73438;DHT22;62744;56.802;23.964;2022-09-27T07:28:22;13.60;81.50
73438;DHT22;62744;56.802;23.964;2022-09-27T07:30:54;13.80;81.50
73438;DHT22;62744;56.802;23.964;2022-09-27T07:33:23;13.60;81.70
73438;DHT22;62744;56.802;23.964;2022-09-27T07:35:51;13.60;82.00
73438;DHT22;62744;56.802;23.964;2022-09-27T07:38:19;13.70;82.50
73438;DHT22;62744;56.802;23.964;2022-09-27T07:40:47;13.90;82.40
73438;DHT22;62744;56.802;23.964;2022-09-27T07:43:14;14.00;81.80
73438;DHT22;62744;56.802;23.964;2022-09-27T07:45:42;14.00;82.20
73438;DHT22;62744;56.802;23.964;2022-09-27T07:48:12;14.00;81.90
73438;DHT22;62744;56.802;23.964;2022-09-27T07:50:40;14.10;81.80
73438;DHT22;62744;56.802;23.964;2022-09-27T07:53:07;14.10;82.00
73438;DHT22;62744;56.802;23.964;2022-09-27T07:55:39;14.30;81.80
73438;DHT22;62744;56.802;23.964;2022-09-27T07:58:09;14.40;82.00
73438;DHT22;62744;56.802;23.964;2022-09-27T08:00:38;14.50;80.90
73438;DHT22;62744;56.802;23.964;2022-09-27T08:03:11;14.30;81.20
73438;DHT22;62744;56.802;23.964;2022-09-27T08:05:43;14.50;82.10
73438;DHT22;62744;56.802;23.964;2022-09-27T08:08:12;14.50;81.20
73438;DHT22;62744;56.802;23.964;2022-09-27T08:10:39;14.60;81.40
73438;DHT22;62744;56.802;23.964;2022-09-27T08:13:10;14.60;80.60
73438;DHT22;62744;56.802;23.964;2022-09-27T08:15:38;14.60;80.70
73438;DHT22;62744;56.802;23.964;2022-09-27T08:18:06;14.50;80.20
73438;DHT22;62744;56.802;23.964;2022-09-27T08:20:37;14.50;81.20
73438;DHT22;62744;56.802;23.964;2022-09-27T08:23:06;14.60;80.50
73438;DHT22;62744;56.802;23.964;2022-09-27T08:25:34;14.70;80.50
73438;DHT22;62744;56.802;23.964;2022-09-27T08:28:02;14.80;80.10
73438;DHT22;62744;56.802;23.964;2022-09-27T08:30:31;14.90;80.30
73438;DHT22;62744;56.802;23.964;2022-09-27T08:33:00;15.10;79.90
73438;DHT22;62744;56.802;23.964;2022-09-27T08:35:31;15.20;80.00
73438;DHT22;62744;56.802;23.964;2022-09-27T08:38:00;15.20;78.90
73438;DHT22;62744;56.802;23.964;2022-09-27T08:40:51;15.10;78.90
73438;DHT22;62744;56.802;23.964;2022-09-27T08:49:05;15.40;79.20
73438;DHT22;62744;56.802;23.964;2022-09-27T08:51:36;15.50;77.70
73438;DHT22;62744;56.802;23.964;2022-09-27T08:54:14;15.60;77.60
73438;DHT22;62744;56.802;23.964;2022-09-27T08:56:46;15.80;76.90
73438;DHT22;62744;56.802;23.964;2022-09-27T08:59:21;15.80;76.70
73438;DHT22;62744;56.802;23.964;2022-09-27T09:01:51;15.80;76.90
73438;DHT22;62744;56.802;23.964;2022-09-27T09:04:30;15.80;77.20
73438;DHT22;62744;56.802;23.964;2022-09-27T09:07:13;15.80;76.00
73438;DHT22;62744;56.802;23.964;2022-09-27T09:10:03;15.90;75.90
73438;DHT22;62744;56.802;23.964;2022-09-27T09:12:51;16.00;75.80
73438;DHT22;62744;56.802;23.964;2022-09-27T09:15:31;15.60;75.10
73438;DHT22;62744;56.802;23.964;2022-09-27T09:21:48;15.30;77.70
73438;DHT22;62744;56.802;23.964;2022-09-27T09:29:12;15.30;78.50
73438;DHT22;62744;56.802;23.964;2022-09-27T09:34:39;15.10;78.10
73438;DHT22;62744;56.802;23.964;2022-09-27T09:37:43;15.10;78.00
73438;DHT22;62744;56.802;23.964;2022-09-27T09:43:32;14.90;78.20
73438;DHT22;62744;56.802;23.964;2022-09-27T09:46:08;14.90;77.90
73438;DHT22;62744;56.802;23.964;2022-09-27T09:48:43;14.70;78.70
73438;DHT22;62744;56.802;23.964;2022-09-27T09:51:17;14.90;78.80
73438;DHT22;62744;56.802;23.964;2022-09-27T09:53:55;15.00;78.30
73438;DHT22;62744;56.802;23.964;2022-09-27T09:56:28;15.20;78.00
73438;DHT22;62744;56.802;23.964;2022-09-27T09:59:03;15.40;78.50
73438;DHT22;62744;56.802;23.964;2022-09-27T10:01:43;15.40;76.50
73438;DHT22;62744;56.802;23.964;2022-09-27T10:04:18;15.10;77.70
73438;DHT22;62744;56.802;23.964;2022-09-27T10:06:47;15.10;78.80
73438;DHT22;62744;56.802;23.964;2022-09-27T10:09:17;15.20;78.20
73438;DHT22;62744;56.802;23.964;2022-09-27T10:11:47;15.20;78.00
73438;DHT22;62744;56.802;23.964;2022-09-27T10:14:18;15.20;78.10
73438;DHT22;62744;56.802;23.964;2022-09-27T10:16:48;15.10;77.70
73438;DHT22;62744;56.802;23.964;2022-09-27T10:19:22;15.20;78.10
73438;DHT22;62744;56.802;23.964;2022-09-27T10:21:53;15.30;77.60
73438;DHT22;62744;56.802;23.964;2022-09-27T10:24:24;15.50;76.00
73438;DHT22;62744;56.802;23.964;2022-09-27T10:26:57;15.40;76.80
73438;DHT22;62744;56.802;23.964;2022-09-27T10:32:04;15.30;77.00
73438;DHT22;62744;56.802;23.964;2022-09-27T10:34:44;15.10;77.00
73438;DHT22;62744;56.802;23.964;2022-09-27T10:39:39;15.00;77.80
73438;DHT22;62744;56.802;23.964;2022-09-27T10:42:36;15.10;77.80
73438;DHT22;62744;56.802;23.964;2022-09-27T10:45:30;15.00;77.40
73438;DHT22;62744;56.802;23.964;2022-09-27T10:48:00;14.80;77.20
73438;DHT22;62744;56.802;23.964;2022-09-27T10:50:30;14.80;78.20
73438;DHT22;62744;56.802;23.964;2022-09-27T10:53:19;14.90;77.30
73438;DHT22;62744;56.802;23.964;2022-09-27T10:55:50;15.00;77.60
73438;DHT22;62744;56.802;23.964;2022-09-27T10:58:24;14.90;77.50
73438;DHT22;62744;56.802;23.964;2022-09-27T11:01:07;14.90;77.70
73438;DHT22;62744;56.802;23.964;2022-09-27T11:03:38;14.90;78.20
73438;DHT22;62744;56.802;23.964;2022-09-27T11:06:29;14.90;76.90
73438;DHT22;62744;56.802;23.964;2022-09-27T11:09:14;14.80;77.20
73438;DHT22;62744;56.802;23.964;2022-09-27T11:11:42;14.80;77.40
73438;DHT22;62744;56.802;23.964;2022-09-27T11:14:20;14.80;77.90
73438;DHT22;62744;56.802;23.964;2022-09-27T11:17:09;14.90;77.80
73438;DHT22;62744;56.802;23.964;2022-09-27T11:28:05;15.20;77.00
73438;DHT22;62744;56.802;23.964;2022-09-27T11:31:07;15.10;77.40
73438;DHT22;62744;56.802;23.964;2022-09-27T11:39:32;15.20;76.40
73438;DHT22;62744;56.802;23.964;2022-09-27T11:45:03;15.20;76.60
73438;DHT22;62744;56.802;23.964;2022-09-27T11:48:16;15.20;76.70
73438;DHT22;62744;56.802;23.964;2022-09-27T11:56:58;15.20;76.60
73438;DHT22;62744;56.802;23.964;2022-09-27T12:10:21;15.00;76.80
73438;DHT22;62744;56.802;23.964;2022-09-27T12:12:52;15.10;76.10
73438;DHT22;62744;56.802;23.964;2022-09-27T12:15:25;15.10;75.40
73438;DHT22;62744;56.802;23.964;2022-09-27T12:18:11;15.10;76.40
73438;DHT22;62744;56.802;23.964;2022-09-27T12:20:42;15.00;76.80
73438;DHT22;62744;56.802;23.964;2022-09-27T12:23:48;14.90;77.10
73438;DHT22;62744;56.802;23.964;2022-09-27T12:26:25;14.90;77.30
73438;DHT22;62744;56.802;23.964;2022-09-27T12:31:34;14.80;77.70
73438;DHT22;62744;56.802;23.964;2022-09-27T12:34:14;14.80;77.40
73438;DHT22;62744;56.802;23.964;2022-09-27T12:36:55;14.70;77.60
73438;DHT22;62744;56.802;23.964;2022-09-27T12:42:05;14.80;77.60
73438;DHT22;62744;56.802;23.964;2022-09-27T12:44:39;15.00;77.70
73438;DHT22;62744;56.802;23.964;2022-09-27T12:47:28;15.00;78.10
73438;DHT22;62744;56.802;23.964;2022-09-27T12:50:04;15.10;77.10
73438;DHT22;62744;56.802;23.964;2022-09-27T12:52:42;15.10;77.20
73438;DHT22;62744;56.802;23.964;2022-09-27T12:57:50;15.30;77.40
73438;DHT22;62744;56.802;23.964;2022-09-27T13:00:21;15.30;77.00
73438;DHT22;62744;56.802;23.964;2022-09-27T13:11:46;15.40;77.40
73438;DHT22;62744;56.802;23.964;2022-09-27T13:14:22;15.50;75.80
73438;DHT22;62744;56.802;23.964;2022-09-27T13:16:51;15.60;75.60
73438;DHT22;62744;56.802;23.964;2022-09-27T13:19:43;15.60;75.60
73438;DHT22;62744;56.802;23.964;2022-09-27T13:24:54;15.40;75.20
73438;DHT22;62744;56.802;23.964;2022-09-27T13:32:34;15.10;77.40
73438;DHT22;62744;56.802;23.964;2022-09-27T13:35:29;15.00;77.60
73438;DHT22;62744;56.802;23.964;2022-09-27T13:37:57;15.10;78.00
73438;DHT22;62744;56.802;23.964;2022-09-27T13:40:37;15.10;77.80
73438;DHT22;62744;56.802;23.964;2022-09-27T13:45:40;15.10;77.80
73438;DHT22;62744;56.802;23.964;2022-09-27T13:48:18;15.00;78.10
73438;DHT22;62744;56.802;23.964;2022-09-27T13:50:51;15.00;78.70
73438;DHT22;62744;56.802;23.964;2022-09-27T13:53:35;15.00;78.10
73438;DHT22;62744;56.802;23.964;2022-09-27T13:56:05;15.10;78.70
73438;DHT22;62744;56.802;23.964;2022-09-27T13:59:19;15.10;78.50
73438;DHT22;62744;56.802;23.964;2022-09-27T14:01:55;15.20;77.50
73438;DHT22;62744;56.802;23.964;2022-09-27T14:04:28;15.30;77.50
73438;DHT22;62744;56.802;23.964;2022-09-27T14:06:59;15.40;77.60
73438;DHT22;62744;56.802;23.964;2022-09-27T14:09:37;15.60;76.70
73438;DHT22;62744;56.802;23.964;2022-09-27T14:12:11;15.60;75.70
73438;DHT22;62744;56.802;23.964;2022-09-27T14:14:42;15.50;76.20
73438;DHT22;62744;56.802;23.964;2022-09-27T14:17:10;15.40;77.30
73438;DHT22;62744;56.802;23.964;2022-09-27T14:19:43;15.40;77.50
73438;DHT22;62744;56.802;23.964;2022-09-27T14:22:16;15.30;77.40
73438;DHT22;62744;56.802;23.964;2022-09-27T14:24:52;15.30;78.30
73438;DHT22;62744;56.802;23.964;2022-09-27T14:27:26;15.20;78.30
73438;DHT22;62744;56.802;23.964;2022-09-27T14:30:00;15.30;78.10
73438;DHT22;62744;56.802;23.964;2022-09-27T14:32:31;15.20;78.50
73438;DHT22;62744;56.802;23.964;2022-09-27T14:35:07;15.20;78.40
73438;DHT22;62744;56.802;23.964;2022-09-27T14:38:01;15.10;78.40
73438;DHT22;62744;56.802;23.964;2022-09-27T14:40:59;15.00;78.80
73438;DHT22;62744;56.802;23.964;2022-09-27T14:43:29;15.00;79.20
73438;DHT22;62744;56.802;23.964;2022-09-27T14:46:03;14.90;79.20
73438;DHT22;62744;56.802;23.964;2022-09-27T14:48:38;14.90;79.10
73438;DHT22;62744;56.802;23.964;2022-09-27T14:53:52;14.90;78.60
73438;DHT22;62744;56.802;23.964;2022-09-27T14:56:32;14.90;78.90
73438;DHT22;62744;56.802;23.964;2022-09-27T14:59:25;14.90;78.90
73438;DHT22;62744;56.802;23.964;2022-09-27T15:01:59;14.80;79.30
73438;DHT22;62744;56.802;23.964;2022-09-27T15:04:31;14.80;79.40
73438;DHT22;62744;56.802;23.964;2022-09-27T15:07:01;14.70;79.30
73438;DHT22;62744;56.802;23.964;2022-09-27T15:09:30;14.80;79.40
73438;DHT22;62744;56.802;23.964;2022-09-27T15:11:59;14.70;79.00
73438;DHT22;62744;56.802;23.964;2022-09-27T15:14:29;14.70;79.50
73438;DHT22;62744;56.802;23.964;2022-09-27T15:17:00;14.70;79.20
73438;DHT22;62744;56.802;23.964;2022-09-27T15:19:32;14.60;79.50
73438;DHT22;62744;56.802;23.964;2022-09-27T15:22:33;14.60;79.80
73438;DHT22;62744;56.802;23.964;2022-09-27T15:25:18;14.50;79.70
73438;DHT22;62744;56.802;23.964;2022-09-27T15:27:52;14.50;80.20
73438;DHT22;62744;56.802;23.964;2022-09-27T15:31:07;14.40;80.20
73438;DHT22;62744;56.802;23.964;2022-09-27T15:33:22;14.30;80.80
73438;DHT22;62744;56.802;23.964;2022-09-27T15:35:55;14.20;80.90
73438;DHT22;62744;56.802;23.964;2022-09-27T15:38:39;14.10;81.10
73438;DHT22;62744;56.802;23.964;2022-09-27T15:41:19;14.00;81.90
73438;DHT22;62744;56.802;23.964;2022-09-27T15:43:49;13.90;82.50
73438;DHT22;62744;56.802;23.964;2022-09-27T15:51:47;13.60;83.30
73438;DHT22;62744;56.802;23.964;2022-09-27T15:54:19;13.50;83.10
73438;DHT22;62744;56.802;23.964;2022-09-27T15:56:49;13.30;83.30
73438;DHT22;62744;56.802;23.964;2022-09-27T15:59:26;13.20;83.80
73438;DHT22;62744;56.802;23.964;2022-09-27T16:01:59;13.10;84.00
73438;DHT22;62744;56.802;23.964;2022-09-27T16:04:34;13.00;84.50
73438;DHT22;62744;56.802;23.964;2022-09-27T16:07:03;12.90;84.80
73438;DHT22;62744;56.802;23.964;2022-09-27T16:09:31;12.80;85.40
73438;DHT22;62744;56.802;23.964;2022-09-27T16:11:59;12.80;85.70
73438;DHT22;62744;56.802;23.964;2022-09-27T16:14:27;12.60;87.10
73438;DHT22;62744;56.802;23.964;2022-09-27T16:16:57;12.60;87.10
73438;DHT22;62744;56.802;23.964;2022-09-27T16:19:26;12.50;87.20
73438;DHT22;62744;56.802;23.964;2022-09-27T16:21:54;12.50;87.60
73438;DHT22;62744;56.802;23.964;2022-09-27T16:24:23;12.50;87.90
73438;DHT22;62744;56.802;23.964;2022-09-27T16:26:51;12.40;88.20
73438;DHT22;62744;56.802;23.964;2022-09-27T16:29:19;12.30;88.20
73438;DHT22;62744;56.802;23.964;2022-09-27T16:31:46;12.40;88.50
73438;DHT22;62744;56.802;23.964;2022-09-27T16:34:14;12.30;88.60
73438;DHT22;62744;56.802;23.964;2022-09-27T16:36:42;12.20;88.70
73438;DHT22;62744;56.802;23.964;2022-09-27T16:39:12;12.10;88.80
73438;DHT22;62744;56.802;23.964;2022-09-27T16:41:40;12.20;88.70
73438;DHT22;62744;56.802;23.964;2022-09-27T16:44:11;12.10;89.00
73438;DHT22;62744;56.802;23.964;2022-09-27T16:46:43;11.90;88.90
73438;DHT22;62744;56.802;23.964;2022-09-27T16:49:14;11.70;89.00
73438;DHT22;62744;56.802;23.964;2022-09-27T16:51:59;11.70;89.10
73438;DHT22;62744;56.802;23.964;2022-09-27T16:54:28;11.60;89.20
73438;DHT22;62744;56.802;23.964;2022-09-27T16:56:57;11.60;89.20
73438;DHT22;62744;56.802;23.964;2022-09-27T16:59:25;11.60;88.90
73438;DHT22;62744;56.802;23.964;2022-09-27T17:01:54;11.60;89.00
73438;DHT22;62744;56.802;23.964;2022-09-27T17:04:26;11.50;89.10
73438;DHT22;62744;56.802;23.964;2022-09-27T17:06:55;11.30;89.30
73438;DHT22;62744;56.802;23.964;2022-09-27T17:09:24;11.20;89.10
73438;DHT22;62744;56.802;23.964;2022-09-27T17:11:52;11.10;89.40
73438;DHT22;62744;56.802;23.964;2022-09-27T17:14:20;11.10;89.50
73438;DHT22;62744;56.802;23.964;2022-09-27T17:17:02;11.00;89.60
73438;DHT22;62744;56.802;23.964;2022-09-27T17:19:30;11.00;89.80
73438;DHT22;62744;56.802;23.964;2022-09-27T17:21:59;10.90;89.80
73438;DHT22;62744;56.802;23.964;2022-09-27T17:24:28;11.00;89.90
73438;DHT22;62744;56.802;23.964;2022-09-27T17:26:59;11.00;89.90
73438;DHT22;62744;56.802;23.964;2022-09-27T17:29:30;10.90;90.00
73438;DHT22;62744;56.802;23.964;2022-09-27T17:31:58;10.90;90.20
73438;DHT22;62744;56.802;23.964;2022-09-27T17:34:27;10.80;90.50
73438;DHT22;62744;56.802;23.964;2022-09-27T17:36:56;10.90;90.10
73438;DHT22;62744;56.802;23.964;2022-09-27T17:39:30;10.90;90.20
73438;DHT22;62744;56.802;23.964;2022-09-27T17:41:58;10.90;90.10
73438;DHT22;62744;56.802;23.964;2022-09-27T17:44:26;10.90;90.30
73438;DHT22;62744;56.802;23.964;2022-09-27T17:46:54;10.90;90.10
73438;DHT22;62744;56.802;23.964;2022-09-27T17:49:41;10.90;90.10
73438;DHT22;62744;56.802;23.964;2022-09-27T17:52:27;10.80;90.10
73438;DHT22;62744;56.802;23.964;2022-09-27T17:54:59;10.90;90.10
73438;DHT22;62744;56.802;23.964;2022-09-27T17:57:27;10.80;90.40
73438;DHT22;62744;56.802;23.964;2022-09-27T17:59:59;10.90;90.00
73438;DHT22;62744;56.802;23.964;2022-09-27T18:02:28;10.90;90.20